sensor_id;sensor_type;location;lat;lon;timestamp;temperature;humidity
65582;DHT22;52231;40.090;18.348;2023-07-13T00:01:16;25.20;68.20
65582;DHT22;52231;40.090;18.348;2023-07-13T00:03:45;25.10;68.60
65582;DHT22;52231;40.090;18.348;2023-07-13T00:06:14;25.10;68.90
65582;DHT22;52231;40.090;18.348;2023-07-13T00:08:43;25.00;68.90
65582;DHT22;52231;40.090;18.348;2023-07-13T00:11:12;25.00;69.20
65582;DHT22;52231;40.090;18.348;2023-07-13T00:13:41;24.90;69.20
65582;DHT22;52231;40.090;18.348;2023-07-13T00:16:11;24.90;69.30
65582;DHT22;52231;40.090;18.348;2023-07-13T00:18:41;24.80;69.50
65582;DHT22;52231;40.090;18.348;2023-07-13T00:21:10;24.80;69.70
65582;DHT22;52231;40.090;18.348;2023-07-13T00:23:41;24.80;69.70
65582;DHT22;52231;40.090;18.348;2023-07-13T00:26:12;24.80;69.80
65582;DHT22;52231;40.090;18.348;2023-07-13T00:28:42;24.70;69.80
65582;DHT22;52231;40.090;18.348;2023-07-13T00:31:12;24.80;70.00
65582;DHT22;52231;40.090;18.348;2023-07-13T00:33:42;24.70;70.00
65582;DHT22;52231;40.090;18.348;2023-07-13T00:36:11;24.70;70.00
65582;DHT22;52231;40.090;18.348;2023-07-13T00:38:40;24.70;70.10
65582;DHT22;52231;40.090;18.348;2023-07-13T00:41:09;24.60;70.00
65582;DHT22;52231;40.090;18.348;2023-07-13T00:43:38;24.60;70.00
65582;DHT22;52231;40.090;18.348;2023-07-13T00:46:26;24.50;70.10
65582;DHT22;52231;40.090;18.348;2023-07-13T00:48:59;24.50;70.30
65582;DHT22;52231;40.090;18.348;2023-07-13T00:51:52;24.50;70.30
65582;DHT22;52231;40.090;18.348;2023-07-13T00:54:30;24.50;70.40
65582;DHT22;52231;40.090;18.348;2023-07-13T00:57:04;24.50;70.50
65582;DHT22;52231;40.090;18.348;2023-07-13T00:59:35;24.50;70.80
65582;DHT22;52231;40.090;18.348;2023-07-13T01:02:04;24.40;70.60
65582;DHT22;52231;40.090;18.348;2023-07-13T01:04:33;24.40;70.70
65582;DHT22;52231;40.090;18.348;2023-07-13T01:07:01;24.30;70.70
65582;DHT22;52231;40.090;18.348;2023-07-13T01:09:30;24.30;71.00
65582;DHT22;52231;40.090;18.348;2023-07-13T01:11:58;24.20;71.10
65582;DHT22;52231;40.090;18.348;2023-07-13T01:14:27;24.20;71.30
65582;DHT22;52231;40.090;18.348;2023-07-13T01:16:56;24.10;71.80
65582;DHT22;52231;40.090;18.348;2023-07-13T01:19:32;24.10;71.90
65582;DHT22;52231;40.090;18.348;2023-07-13T01:22:16;24.10;72.00
65582;DHT22;52231;40.090;18.348;2023-07-13T01:24:47;24.10;72.10
65582;DHT22;52231;40.090;18.348;2023-07-13T01:27:22;24.00;72.20
65582;DHT22;52231;40.090;18.348;2023-07-13T01:29:54;24.00;72.50
65582;DHT22;52231;40.090;18.348;2023-07-13T01:32:31;23.90;72.50
65582;DHT22;52231;40.090;18.348;2023-07-13T01:35:00;23.90;72.70
65582;DHT22;52231;40.090;18.348;2023-07-13T01:37:29;24.00;72.70
65582;DHT22;52231;40.090;18.348;2023-07-13T01:40:01;24.00;72.70
65582;DHT22;52231;40.090;18.348;2023-07-13T01:42:31;23.90;72.70
65582;DHT22;52231;40.090;18.348;2023-07-13T01:44:59;23.90;72.60
65582;DHT22;52231;40.090;18.348;2023-07-13T01:47:28;23.90;72.50
65582;DHT22;52231;40.090;18.348;2023-07-13T01:49:58;23.80;72.60
65582;DHT22;52231;40.090;18.348;2023-07-13T01:52:27;23.80;72.60
65582;DHT22;52231;40.090;18.348;2023-07-13T01:54:55;23.80;72.70
65582;DHT22;52231;40.090;18.348;2023-07-13T01:57:23;23.70;72.80
65582;DHT22;52231;40.090;18.348;2023-07-13T01:59:52;23.60;73.00
65582;DHT22;52231;40.090;18.348;2023-07-13T02:02:20;23.60;73.10
65582;DHT22;52231;40.090;18.348;2023-07-13T02:04:48;23.60;73.40
65582;DHT22;52231;40.090;18.348;2023-07-13T02:07:16;23.60;73.50
65582;DHT22;52231;40.090;18.348;2023-07-13T02:09:44;23.50;73.60
65582;DHT22;52231;40.090;18.348;2023-07-13T02:12:13;23.50;73.70
65582;DHT22;52231;40.090;18.348;2023-07-13T02:14:41;23.50;73.80
65582;DHT22;52231;40.090;18.348;2023-07-13T02:17:09;23.50;73.90
65582;DHT22;52231;40.090;18.348;2023-07-13T02:19:38;23.40;74.00
65582;DHT22;52231;40.090;18.348;2023-07-13T02:22:06;23.40;74.10
65582;DHT22;52231;40.090;18.348;2023-07-13T02:24:34;23.40;74.30
65582;DHT22;52231;40.090;18.348;2023-07-13T02:27:03;23.40;74.30
65582;DHT22;52231;40.090;18.348;2023-07-13T02:29:32;23.30;74.50
65582;DHT22;52231;40.090;18.348;2023-07-13T02:32:00;23.40;74.70
65582;DHT22;52231;40.090;18.348;2023-07-13T02:34:28;23.30;74.60
65582;DHT22;52231;40.090;18.348;2023-07-13T02:36:58;23.40;74.70
65582;DHT22;52231;40.090;18.348;2023-07-13T02:39:26;23.40;74.70
65582;DHT22;52231;40.090;18.348;2023-07-13T02:41:54;23.30;74.80
65582;DHT22;52231;40.090;18.348;2023-07-13T02:44:22;23.40;74.80
65582;DHT22;52231;40.090;18.348;2023-07-13T02:46:51;23.30;74.80
65582;DHT22;52231;40.090;18.348;2023-07-13T02:49:20;23.30;74.90
65582;DHT22;52231;40.090;18.348;2023-07-13T02:51:49;23.30;74.80
65582;DHT22;52231;40.090;18.348;2023-07-13T02:54:17;23.20;74.90
65582;DHT22;52231;40.090;18.348;2023-07-13T02:56:46;23.20;75.00
65582;DHT22;52231;40.090;18.348;2023-07-13T02:59:15;23.10;75.20
65582;DHT22;52231;40.090;18.348;2023-07-13T03:01:44;23.10;75.50
65582;DHT22;52231;40.090;18.348;2023-07-13T03:04:12;23.00;75.70
65582;DHT22;52231;40.090;18.348;2023-07-13T03:06:41;23.00;75.70
65582;DHT22;52231;40.090;18.348;2023-07-13T03:09:10;23.00;75.70
65582;DHT22;52231;40.090;18.348;2023-07-13T03:11:44;23.00;75.90
65582;DHT22;52231;40.090;18.348;2023-07-13T03:14:22;23.00;76.10
65582;DHT22;52231;40.090;18.348;2023-07-13T03:16:51;22.90;76.30
65582;DHT22;52231;40.090;18.348;2023-07-13T03:19:23;22.90;76.60
65582;DHT22;52231;40.090;18.348;2023-07-13T03:21:52;23.00;76.80
65582;DHT22;52231;40.090;18.348;2023-07-13T03:24:21;23.00;77.00
65582;DHT22;52231;40.090;18.348;2023-07-13T03:26:52;23.00;77.00
65582;DHT22;52231;40.090;18.348;2023-07-13T03:29:22;23.00;77.00
65582;DHT22;52231;40.090;18.348;2023-07-13T03:31:52;23.00;77.20
65582;DHT22;52231;40.090;18.348;2023-07-13T03:34:24;23.00;77.30
65582;DHT22;52231;40.090;18.348;2023-07-13T03:36:55;23.10;77.30
65582;DHT22;52231;40.090;18.348;2023-07-13T03:39:24;23.10;77.10
65582;DHT22;52231;40.090;18.348;2023-07-13T03:41:55;23.20;76.80
65582;DHT22;52231;40.090;18.348;2023-07-13T03:44:24;23.10;76.70
65582;DHT22;52231;40.090;18.348;2023-07-13T03:46:55;23.20;76.70
65582;DHT22;52231;40.090;18.348;2023-07-13T03:49:24;23.20;76.70
65582;DHT22;52231;40.090;18.348;2023-07-13T03:51:53;23.20;76.80
65582;DHT22;52231;40.090;18.348;2023-07-13T03:54:22;23.30;76.90
65582;DHT22;52231;40.090;18.348;2023-07-13T03:56:50;23.30;76.90
65582;DHT22;52231;40.090;18.348;2023-07-13T03:59:21;23.40;77.00
65582;DHT22;52231;40.090;18.348;2023-07-13T04:01:49;23.50;77.00
65582;DHT22;52231;40.090;18.348;2023-07-13T04:04:18;23.60;77.10
65582;DHT22;52231;40.090;18.348;2023-07-13T04:06:48;23.70;77.00
65582;DHT22;52231;40.090;18.348;2023-07-13T04:09:16;23.80;76.70
65582;DHT22;52231;40.090;18.348;2023-07-13T04:11:45;24.00;76.50
65582;DHT22;52231;40.090;18.348;2023-07-13T04:14:13;24.20;76.10
65582;DHT22;52231;40.090;18.348;2023-07-13T04:16:42;24.30;75.60
65582;DHT22;52231;40.090;18.348;2023-07-13T04:19:13;24.50;75.60
65582;DHT22;52231;40.090;18.348;2023-07-13T04:21:42;24.70;75.40
65582;DHT22;52231;40.090;18.348;2023-07-13T04:24:10;25.00;75.10
65582;DHT22;52231;40.090;18.348;2023-07-13T04:26:39;25.40;74.20
65582;DHT22;52231;40.090;18.348;2023-07-13T04:29:08;25.80;73.50
65582;DHT22;52231;40.090;18.348;2023-07-13T04:31:37;26.10;73.30
65582;DHT22;52231;40.090;18.348;2023-07-13T04:34:05;26.30;73.10
65582;DHT22;52231;40.090;18.348;2023-07-13T04:36:34;26.70;72.20
65582;DHT22;52231;40.090;18.348;2023-07-13T04:39:06;27.20;71.40
65582;DHT22;52231;40.090;18.348;2023-07-13T04:41:35;27.80;69.70
65582;DHT22;52231;40.090;18.348;2023-07-13T04:44:03;28.20;68.20
65582;DHT22;52231;40.090;18.348;2023-07-13T04:46:32;28.50;67.70
65582;DHT22;52231;40.090;18.348;2023-07-13T04:49:01;28.80;67.20
65582;DHT22;52231;40.090;18.348;2023-07-13T04:51:32;29.00;66.80
65582;DHT22;52231;40.090;18.348;2023-07-13T04:54:00;29.20;66.40
65582;DHT22;52231;40.090;18.348;2023-07-13T04:56:29;29.40;66.60
65582;DHT22;52231;40.090;18.348;2023-07-13T04:58:58;29.70;65.80
65582;DHT22;52231;40.090;18.348;2023-07-13T05:01:27;29.60;66.70
65582;DHT22;52231;40.090;18.348;2023-07-13T05:03:55;29.60;67.10
65582;DHT22;52231;40.090;18.348;2023-07-13T05:06:26;29.70;67.40
65582;DHT22;52231;40.090;18.348;2023-07-13T05:08:55;29.60;67.50
65582;DHT22;52231;40.090;18.348;2023-07-13T05:11:24;29.40;68.50
65582;DHT22;52231;40.090;18.348;2023-07-13T05:13:53;29.30;69.20
65582;DHT22;52231;40.090;18.348;2023-07-13T05:16:21;29.30;68.90
65582;DHT22;52231;40.090;18.348;2023-07-13T05:18:51;29.40;68.70
65582;DHT22;52231;40.090;18.348;2023-07-13T05:21:20;29.50;68.40
65582;DHT22;52231;40.090;18.348;2023-07-13T05:23:49;29.50;68.10
65582;DHT22;52231;40.090;18.348;2023-07-13T05:26:18;29.50;68.40
65582;DHT22;52231;40.090;18.348;2023-07-13T05:28:47;29.70;68.20
65582;DHT22;52231;40.090;18.348;2023-07-13T05:31:15;29.90;67.00
65582;DHT22;52231;40.090;18.348;2023-07-13T05:33:44;30.40;65.90
65582;DHT22;52231;40.090;18.348;2023-07-13T05:36:13;30.70;64.70
65582;DHT22;52231;40.090;18.348;2023-07-13T05:38:42;31.00;63.10
65582;DHT22;52231;40.090;18.348;2023-07-13T05:41:11;30.90;62.70
65582;DHT22;52231;40.090;18.348;2023-07-13T05:43:40;30.80;63.60
65582;DHT22;52231;40.090;18.348;2023-07-13T05:46:09;31.10;62.80
65582;DHT22;52231;40.090;18.348;2023-07-13T05:48:39;31.10;62.80
65582;DHT22;52231;40.090;18.348;2023-07-13T05:51:08;31.40;62.50
65582;DHT22;52231;40.090;18.348;2023-07-13T05:53:37;32.10;60.30
65582;DHT22;52231;40.090;18.348;2023-07-13T05:56:06;32.10;56.70
65582;DHT22;52231;40.090;18.348;2023-07-13T05:58:34;32.30;56.20
65582;DHT22;52231;40.090;18.348;2023-07-13T06:01:08;32.80;55.00
65582;DHT22;52231;40.090;18.348;2023-07-13T06:03:37;33.20;54.20
65582;DHT22;52231;40.090;18.348;2023-07-13T06:06:09;33.20;52.90
65582;DHT22;52231;40.090;18.348;2023-07-13T06:08:39;32.80;53.20
65582;DHT22;52231;40.090;18.348;2023-07-13T06:11:15;32.80;52.90
65582;DHT22;52231;40.090;18.348;2023-07-13T06:13:44;33.10;52.70
65582;DHT22;52231;40.090;18.348;2023-07-13T06:16:13;33.20;51.40
65582;DHT22;52231;40.090;18.348;2023-07-13T06:18:43;33.00;51.70
65582;DHT22;52231;40.090;18.348;2023-07-13T06:21:19;33.30;51.00
65582;DHT22;52231;40.090;18.348;2023-07-13T06:23:49;33.80;49.80
65582;DHT22;52231;40.090;18.348;2023-07-13T06:26:18;34.00;49.20
65582;DHT22;52231;40.090;18.348;2023-07-13T06:28:47;34.00;49.70
65582;DHT22;52231;40.090;18.348;2023-07-13T06:31:16;34.40;48.30
65582;DHT22;52231;40.090;18.348;2023-07-13T06:33:45;34.90;46.80
65582;DHT22;52231;40.090;18.348;2023-07-13T06:36:13;34.30;46.90
65582;DHT22;52231;40.090;18.348;2023-07-13T06:38:42;34.30;47.00
65582;DHT22;52231;40.090;18.348;2023-07-13T06:41:10;34.60;46.70
65582;DHT22;52231;40.090;18.348;2023-07-13T06:43:39;34.80;45.60
65582;DHT22;52231;40.090;18.348;2023-07-13T06:46:07;35.10;44.40
65582;DHT22;52231;40.090;18.348;2023-07-13T06:48:36;35.10;44.10
65582;DHT22;52231;40.090;18.348;2023-07-13T06:51:04;35.20;43.30
65582;DHT22;52231;40.090;18.348;2023-07-13T06:53:32;35.30;44.50
65582;DHT22;52231;40.090;18.348;2023-07-13T06:56:01;35.50;43.50
65582;DHT22;52231;40.090;18.348;2023-07-13T06:58:29;35.90;43.00
65582;DHT22;52231;40.090;18.348;2023-07-13T07:00:57;36.10;43.90
65582;DHT22;52231;40.090;18.348;2023-07-13T07:03:25;36.20;43.50
65582;DHT22;52231;40.090;18.348;2023-07-13T07:05:59;36.50;46.20
65582;DHT22;52231;40.090;18.348;2023-07-13T07:08:28;36.80;45.00
65582;DHT22;52231;40.090;18.348;2023-07-13T07:10:56;36.40;47.40
65582;DHT22;52231;40.090;18.348;2023-07-13T07:13:24;36.60;47.30
65582;DHT22;52231;40.090;18.348;2023-07-13T07:15:52;37.10;44.20
65582;DHT22;52231;40.090;18.348;2023-07-13T07:18:21;37.20;38.30
65582;DHT22;52231;40.090;18.348;2023-07-13T07:20:49;37.40;37.50
65582;DHT22;52231;40.090;18.348;2023-07-13T07:23:18;37.80;35.90
65582;DHT22;52231;40.090;18.348;2023-07-13T07:25:46;38.10;34.00
65582;DHT22;52231;40.090;18.348;2023-07-13T07:28:16;38.30;32.20
65582;DHT22;52231;40.090;18.348;2023-07-13T07:30:53;38.00;31.30
65582;DHT22;52231;40.090;18.348;2023-07-13T07:33:41;37.80;31.80
65582;DHT22;52231;40.090;18.348;2023-07-13T07:36:09;37.90;31.10
65582;DHT22;52231;40.090;18.348;2023-07-13T07:38:40;38.00;30.50
65582;DHT22;52231;40.090;18.348;2023-07-13T07:41:08;38.20;28.20
65582;DHT22;52231;40.090;18.348;2023-07-13T07:43:40;38.50;28.60
65582;DHT22;52231;40.090;18.348;2023-07-13T07:46:08;38.70;28.50
65582;DHT22;52231;40.090;18.348;2023-07-13T07:48:36;39.00;28.00
65582;DHT22;52231;40.090;18.348;2023-07-13T07:51:05;39.30;27.00
65582;DHT22;52231;40.090;18.348;2023-07-13T07:53:33;39.30;26.70
65582;DHT22;52231;40.090;18.348;2023-07-13T07:56:01;39.40;26.90
65582;DHT22;52231;40.090;18.348;2023-07-13T07:58:30;39.10;26.00
65582;DHT22;52231;40.090;18.348;2023-07-13T08:01:05;39.10;26.80
65582;DHT22;52231;40.090;18.348;2023-07-13T08:03:36;39.30;26.30
65582;DHT22;52231;40.090;18.348;2023-07-13T08:06:08;39.40;25.90
65582;DHT22;52231;40.090;18.348;2023-07-13T08:08:39;39.40;25.70
65582;DHT22;52231;40.090;18.348;2023-07-13T08:11:08;39.40;24.40
65582;DHT22;52231;40.090;18.348;2023-07-13T08:13:40;39.60;24.90
65582;DHT22;52231;40.090;18.348;2023-07-13T08:16:09;39.80;25.40
65582;DHT22;52231;40.090;18.348;2023-07-13T08:18:37;40.30;24.60
65582;DHT22;52231;40.090;18.348;2023-07-13T08:21:07;40.30;24.30
65582;DHT22;52231;40.090;18.348;2023-07-13T08:23:37;40.30;24.80
65582;DHT22;52231;40.090;18.348;2023-07-13T08:26:07;40.40;24.20
65582;DHT22;52231;40.090;18.348;2023-07-13T08:28:35;40.20;23.10
65582;DHT22;52231;40.090;18.348;2023-07-13T08:31:05;40.10;23.70
65582;DHT22;52231;40.090;18.348;2023-07-13T08:33:35;40.50;24.50
65582;DHT22;52231;40.090;18.348;2023-07-13T08:36:04;40.80;24.60
65582;DHT22;52231;40.090;18.348;2023-07-13T08:38:34;40.80;24.20
65582;DHT22;52231;40.090;18.348;2023-07-13T08:41:13;40.80;23.60
65582;DHT22;52231;40.090;18.348;2023-07-13T08:43:47;40.60;23.70
65582;DHT22;52231;40.090;18.348;2023-07-13T08:46:32;40.80;23.80
65582;DHT22;52231;40.090;18.348;2023-07-13T08:49:21;41.10;23.40
65582;DHT22;52231;40.090;18.348;2023-07-13T08:51:58;41.00;22.50
65582;DHT22;52231;40.090;18.348;2023-07-13T08:54:41;40.80;23.50
65582;DHT22;52231;40.090;18.348;2023-07-13T08:57:20;40.50;24.90
65582;DHT22;52231;40.090;18.348;2023-07-13T08:59:48;40.80;24.70
65582;DHT22;52231;40.090;18.348;2023-07-13T09:02:23;41.00;23.80
65582;DHT22;52231;40.090;18.348;2023-07-13T09:04:59;40.80;23.50
65582;DHT22;52231;40.090;18.348;2023-07-13T09:08:19;40.90;23.50
65582;DHT22;52231;40.090;18.348;2023-07-13T09:11:04;41.30;24.60
65582;DHT22;52231;40.090;18.348;2023-07-13T09:16:18;41.30;23.00
65582;DHT22;52231;40.090;18.348;2023-07-13T09:18:50;41.50;22.70
65582;DHT22;52231;40.090;18.348;2023-07-13T09:21:32;41.80;23.40
65582;DHT22;52231;40.090;18.348;2023-07-13T09:24:37;42.10;21.90
65582;DHT22;52231;40.090;18.348;2023-07-13T09:27:17;42.40;22.30
65582;DHT22;52231;40.090;18.348;2023-07-13T09:29:49;42.30;21.70
65582;DHT22;52231;40.090;18.348;2023-07-13T09:32:21;42.30;20.70
65582;DHT22;52231;40.090;18.348;2023-07-13T09:34:55;42.30;21.20
65582;DHT22;52231;40.090;18.348;2023-07-13T09:37:30;42.80;21.60
65582;DHT22;52231;40.090;18.348;2023-07-13T09:40:02;43.00;21.70
65582;DHT22;52231;40.090;18.348;2023-07-13T09:42:37;43.00;20.40
65582;DHT22;52231;40.090;18.348;2023-07-13T09:45:06;42.90;21.00
65582;DHT22;52231;40.090;18.348;2023-07-13T09:47:39;42.60;19.80
65582;DHT22;52231;40.090;18.348;2023-07-13T09:50:15;42.10;21.50
65582;DHT22;52231;40.090;18.348;2023-07-13T09:52:49;42.70;21.30
65582;DHT22;52231;40.090;18.348;2023-07-13T09:55:31;43.00;20.40
65582;DHT22;52231;40.090;18.348;2023-07-13T09:58:14;43.10;20.90
65582;DHT22;52231;40.090;18.348;2023-07-13T10:00:50;42.90;21.50
65582;DHT22;52231;40.090;18.348;2023-07-13T10:03:27;42.90;19.40
65582;DHT22;52231;40.090;18.348;2023-07-13T10:06:09;42.60;20.00
65582;DHT22;52231;40.090;18.348;2023-07-13T10:08:38;42.70;20.10
65582;DHT22;52231;40.090;18.348;2023-07-13T10:11:19;42.70;20.60
65582;DHT22;52231;40.090;18.348;2023-07-13T10:13:52;42.70;21.10
65582;DHT22;52231;40.090;18.348;2023-07-13T10:16:25;42.90;19.50
65582;DHT22;52231;40.090;18.348;2023-07-13T10:19:02;42.80;19.90
65582;DHT22;52231;40.090;18.348;2023-07-13T10:24:24;43.30;20.20
65582;DHT22;52231;40.090;18.348;2023-07-13T10:27:04;43.40;19.90
65582;DHT22;52231;40.090;18.348;2023-07-13T10:29:40;43.20;19.80
65582;DHT22;52231;40.090;18.348;2023-07-13T10:32:12;43.40;20.40
65582;DHT22;52231;40.090;18.348;2023-07-13T10:34:43;43.60;20.70
65582;DHT22;52231;40.090;18.348;2023-07-13T10:37:19;43.80;20.60
65582;DHT22;52231;40.090;18.348;2023-07-13T10:39:52;43.80;20.30
65582;DHT22;52231;40.090;18.348;2023-07-13T10:42:32;44.00;20.70
65582;DHT22;52231;40.090;18.348;2023-07-13T10:45:17;44.00;20.70
65582;DHT22;52231;40.090;18.348;2023-07-13T10:47:46;43.70;21.30
65582;DHT22;52231;40.090;18.348;2023-07-13T10:50:21;43.60;20.30
65582;DHT22;52231;40.090;18.348;2023-07-13T10:52:53;43.80;20.50
65582;DHT22;52231;40.090;18.348;2023-07-13T10:55:36;43.60;20.20
65582;DHT22;52231;40.090;18.348;2023-07-13T10:58:21;43.70;20.10
65582;DHT22;52231;40.090;18.348;2023-07-13T11:03:25;43.70;19.50
65582;DHT22;52231;40.090;18.348;2023-07-13T11:09:03;43.20;19.50
65582;DHT22;52231;40.090;18.348;2023-07-13T11:11:34;43.30;20.00
65582;DHT22;52231;40.090;18.348;2023-07-13T11:14:36;43.20;18.60
65582;DHT22;52231;40.090;18.348;2023-07-13T11:20:20;43.80;18.70
65582;DHT22;52231;40.090;18.348;2023-07-13T11:23:15;44.10;18.70
65582;DHT22;52231;40.090;18.348;2023-07-13T11:25:45;44.30;18.50
65582;DHT22;52231;40.090;18.348;2023-07-13T11:28:21;44.00;19.60
65582;DHT22;52231;40.090;18.348;2023-07-13T11:36:13;44.40;18.20
65582;DHT22;52231;40.090;18.348;2023-07-13T11:38:58;44.30;18.80
65582;DHT22;52231;40.090;18.348;2023-07-13T11:41:31;44.40;18.90
65582;DHT22;52231;40.090;18.348;2023-07-13T11:44:19;44.40;16.90
65582;DHT22;52231;40.090;18.348;2023-07-13T11:46:53;44.50;17.60
65582;DHT22;52231;40.090;18.348;2023-07-13T11:49:30;44.40;17.20
65582;DHT22;52231;40.090;18.348;2023-07-13T11:52:00;44.10;18.30
65582;DHT22;52231;40.090;18.348;2023-07-13T11:54:33;44.20;19.10
65582;DHT22;52231;40.090;18.348;2023-07-13T11:57:27;44.70;18.40
65582;DHT22;52231;40.090;18.348;2023-07-13T11:59:58;44.90;17.60
65582;DHT22;52231;40.090;18.348;2023-07-13T12:02:43;44.70;17.40
65582;DHT22;52231;40.090;18.348;2023-07-13T12:05:15;44.80;17.70
65582;DHT22;52231;40.090;18.348;2023-07-13T12:07:45;44.90;16.50
65582;DHT22;52231;40.090;18.348;2023-07-13T12:13:08;44.30;17.60
65582;DHT22;52231;40.090;18.348;2023-07-13T12:15:43;44.60;18.40
65582;DHT22;52231;40.090;18.348;2023-07-13T12:18:20;44.40;18.00
65582;DHT22;52231;40.090;18.348;2023-07-13T12:20:50;44.00;16.70
65582;DHT22;52231;40.090;18.348;2023-07-13T12:23:29;44.20;17.80
65582;DHT22;52231;40.090;18.348;2023-07-13T12:26:02;43.90;16.90
65582;DHT22;52231;40.090;18.348;2023-07-13T12:28:53;44.30;17.40
65582;DHT22;52231;40.090;18.348;2023-07-13T12:31:36;43.80;17.50
65582;DHT22;52231;40.090;18.348;2023-07-13T12:34:18;43.90;17.00
65582;DHT22;52231;40.090;18.348;2023-07-13T12:37:00;44.00;17.30
65582;DHT22;52231;40.090;18.348;2023-07-13T12:39:38;44.10;17.70
65582;DHT22;52231;40.090;18.348;2023-07-13T12:42:25;44.30;16.50
65582;DHT22;52231;40.090;18.348;2023-07-13T12:45:02;44.50;17.10
65582;DHT22;52231;40.090;18.348;2023-07-13T12:47:40;44.60;16.00
65582;DHT22;52231;40.090;18.348;2023-07-13T12:50:16;44.30;16.00
65582;DHT22;52231;40.090;18.348;2023-07-13T12:52:53;44.10;16.90
65582;DHT22;52231;40.090;18.348;2023-07-13T12:55:22;44.20;17.00
65582;DHT22;52231;40.090;18.348;2023-07-13T12:57:56;44.30;17.10
65582;DHT22;52231;40.090;18.348;2023-07-13T13:00:30;44.60;17.30
65582;DHT22;52231;40.090;18.348;2023-07-13T13:03:26;44.70;16.50
65582;DHT22;52231;40.090;18.348;2023-07-13T13:06:00;44.70;17.60
65582;DHT22;52231;40.090;18.348;2023-07-13T13:08:35;44.90;17.70
65582;DHT22;52231;40.090;18.348;2023-07-13T13:11:04;44.90;16.90
65582;DHT22;52231;40.090;18.348;2023-07-13T13:13:33;44.60;17.20
65582;DHT22;52231;40.090;18.348;2023-07-13T13:16:26;44.40;16.80
65582;DHT22;52231;40.090;18.348;2023-07-13T13:18:54;44.40;18.00
65582;DHT22;52231;40.090;18.348;2023-07-13T13:21:25;44.30;19.40
65582;DHT22;52231;40.090;18.348;2023-07-13T13:23:54;44.30;18.70
65582;DHT22;52231;40.090;18.348;2023-07-13T13:26:23;44.60;19.10
65582;DHT22;52231;40.090;18.348;2023-07-13T13:28:52;44.20;18.60
65582;DHT22;52231;40.090;18.348;2023-07-13T13:31:21;43.80;19.10
65582;DHT22;52231;40.090;18.348;2023-07-13T13:33:50;43.90;18.80
65582;DHT22;52231;40.090;18.348;2023-07-13T13:36:20;43.90;19.00
65582;DHT22;52231;40.090;18.348;2023-07-13T13:38:51;43.80;19.20
65582;DHT22;52231;40.090;18.348;2023-07-13T13:41:19;43.70;19.90
65582;DHT22;52231;40.090;18.348;2023-07-13T13:43:48;43.30;19.70
65582;DHT22;52231;40.090;18.348;2023-07-13T13:46:22;43.10;19.60
65582;DHT22;52231;40.090;18.348;2023-07-13T13:48:54;42.80;20.60
65582;DHT22;52231;40.090;18.348;2023-07-13T13:51:24;42.80;20.40
65582;DHT22;52231;40.090;18.348;2023-07-13T13:53:53;42.90;20.50
65582;DHT22;52231;40.090;18.348;2023-07-13T13:56:22;42.90;19.30
65582;DHT22;52231;40.090;18.348;2023-07-13T13:58:50;42.90;19.20
65582;DHT22;52231;40.090;18.348;2023-07-13T14:01:20;42.70;19.30
65582;DHT22;52231;40.090;18.348;2023-07-13T14:03:50;42.50;19.70
65582;DHT22;52231;40.090;18.348;2023-07-13T14:06:22;42.00;20.20
65582;DHT22;52231;40.090;18.348;2023-07-13T14:08:50;42.10;19.80
65582;DHT22;52231;40.090;18.348;2023-07-13T14:11:20;41.90;20.90
65582;DHT22;52231;40.090;18.348;2023-07-13T14:13:57;41.80;21.40
65582;DHT22;52231;40.090;18.348;2023-07-13T14:16:30;41.40;21.00
65582;DHT22;52231;40.090;18.348;2023-07-13T14:19:00;41.40;21.30
65582;DHT22;52231;40.090;18.348;2023-07-13T14:21:29;41.40;21.60
65582;DHT22;52231;40.090;18.348;2023-07-13T14:23:58;41.20;21.50
65582;DHT22;52231;40.090;18.348;2023-07-13T14:26:27;40.90;22.50
65582;DHT22;52231;40.090;18.348;2023-07-13T14:28:56;40.70;22.50
65582;DHT22;52231;40.090;18.348;2023-07-13T14:31:27;40.40;22.10
65582;DHT22;52231;40.090;18.348;2023-07-13T14:33:59;40.20;23.10
65582;DHT22;52231;40.090;18.348;2023-07-13T14:36:42;39.90;22.70
65582;DHT22;52231;40.090;18.348;2023-07-13T14:39:17;39.70;23.80
65582;DHT22;52231;40.090;18.348;2023-07-13T14:41:49;39.70;23.50
65582;DHT22;52231;40.090;18.348;2023-07-13T14:44:30;39.60;23.30
65582;DHT22;52231;40.090;18.348;2023-07-13T14:47:03;39.30;24.10
65582;DHT22;52231;40.090;18.348;2023-07-13T14:49:48;39.20;23.60
65582;DHT22;52231;40.090;18.348;2023-07-13T14:52:18;38.90;22.90
65582;DHT22;52231;40.090;18.348;2023-07-13T14:54:48;38.90;24.50
65582;DHT22;52231;40.090;18.348;2023-07-13T14:57:18;38.80;25.80
65582;DHT22;52231;40.090;18.348;2023-07-13T14:59:48;38.60;25.90
65582;DHT22;52231;40.090;18.348;2023-07-13T15:02:19;38.50;25.80
65582;DHT22;52231;40.090;18.348;2023-07-13T15:04:53;38.10;25.00
65582;DHT22;52231;40.090;18.348;2023-07-13T15:07:22;37.90;25.20
65582;DHT22;52231;40.090;18.348;2023-07-13T15:09:51;37.80;25.90
65582;DHT22;52231;40.090;18.348;2023-07-13T15:12:19;37.70;26.80
65582;DHT22;52231;40.090;18.348;2023-07-13T15:14:48;37.60;27.10
65582;DHT22;52231;40.090;18.348;2023-07-13T15:17:45;37.40;27.30
65582;DHT22;52231;40.090;18.348;2023-07-13T15:20:19;37.30;27.20
65582;DHT22;52231;40.090;18.348;2023-07-13T15:22:49;37.10;27.50
65582;DHT22;52231;40.090;18.348;2023-07-13T15:25:20;37.10;28.60
65582;DHT22;52231;40.090;18.348;2023-07-13T15:27:49;37.10;29.10
65582;DHT22;52231;40.090;18.348;2023-07-13T15:30:19;37.00;28.80
65582;DHT22;52231;40.090;18.348;2023-07-13T15:32:48;36.80;29.40
65582;DHT22;52231;40.090;18.348;2023-07-13T15:35:26;36.80;30.10
65582;DHT22;52231;40.090;18.348;2023-07-13T15:37:54;36.80;29.90
65582;DHT22;52231;40.090;18.348;2023-07-13T15:40:23;36.70;29.60
65582;DHT22;52231;40.090;18.348;2023-07-13T15:42:52;36.60;30.20
65582;DHT22;52231;40.090;18.348;2023-07-13T15:45:25;36.50;30.80
65582;DHT22;52231;40.090;18.348;2023-07-13T15:47:54;36.40;30.50
65582;DHT22;52231;40.090;18.348;2023-07-13T15:50:24;36.40;30.40
65582;DHT22;52231;40.090;18.348;2023-07-13T15:52:55;36.30;31.50
65582;DHT22;52231;40.090;18.348;2023-07-13T15:55:24;36.10;31.70
65582;DHT22;52231;40.090;18.348;2023-07-13T15:57:52;35.90;31.40
65582;DHT22;52231;40.090;18.348;2023-07-13T16:00:23;35.70;31.50
65582;DHT22;52231;40.090;18.348;2023-07-13T16:02:53;35.60;31.40
65582;DHT22;52231;40.090;18.348;2023-07-13T16:05:23;35.40;32.20
65582;DHT22;52231;40.090;18.348;2023-07-13T16:07:52;35.40;32.90